עמוד ראשי
METAR-TAF:

METAR-TAF

שדות תעופה :

אהואז, איראן

קו רוחב: 31-20N, קו אורך: 048-40E, גובה: 20מטר

תצפית מזג אוויר נוכחית

הדו"ח נערך לפני 39דקות, בשעה 19:30 UTC
רוח 4קשר מכיוון מערב
טמפרטורת 37 צלסיוס
לחות 16%
לחץ 998 hPa
ראות 10 קילומטר או יותר
ללא עננים שבסיסם נמוך מ 5000 רגל או קומולונימבוס

METAR: OIAW 131930Z 28004KT CAVOK 37/07 Q0998

זמן: 00:39 (20:09 UTC)

תחזית

הדו"ח נערך לפני 2 שעות ו 39דקות, בשעה 17:30 UTC
תחזית בתוקף מ 13 ב 18 UTC עד 14 ב 24 UTC
רוח 7קשר מכיוון צפון/צפון-מערב
ראות: 8000מטר

TAF: OIAW 131730Z 1318/1424 33007KT 8000 NSC

תצפיות ותחזיות מזג אוויר לגבי יותר מ- 4,000 שדות תעופה ברחבי העולם. דוחות METAR ו- TAF.

התחנות הזמינות מסומנות בנקודות צהובות ואדומות על גבי המפה.

העבר את העכבר לנקודה הצבעונית על מנת לראות את שם התחנה.

לאחר מכן, לחץ כדי לראות את תוכן ואת תחזיות מזג האוויר.

כדי לשנות את המפה: לחץ על הכפתורים הירוקים עם הפלוס השחור כדי להתקרב; על הכפתור הירוק עם המקף כדי להתרחק; או בחיצים הירוקים למפות סמוכות.


METAR-TAF: